Time;durP1;ratioP1;P1;durP2;ratioP2;P2;SDS_P1;SDS_P2;PMS_P1;PMS_P2;Temp;Humidity;BMP_temperature;BMP_pressure;BME280_temperature;BME280_humidity;BME280_pressure;Samples;Min_cycle;Max_cycle;Signal;HPM_P1;HPM_P2
2021/01/17 00:00:33;;;;;;;86.82;55.90;;;4.70;99.90;;;;;;5055520;28;20147;-66
2021/01/17 00:02:59;;;;;;;89.75;58.22;;;4.70;99.90;;;;;;5058724;28;20565;-66
2021/01/17 00:05:26;;;;;;;76.93;49.53;;;4.60;99.90;;;;;;5056556;28;20025;-66
2021/01/17 00:07:52;;;;;;;77.15;48.88;;;4.70;99.90;;;;;;5056762;28;20414;-66
2021/01/17 00:10:23;;;;;;;67.18;43.97;;;4.70;99.90;;;;;;5066508;28;20039;-66
2021/01/17 00:12:49;;;;;;;65.35;42.85;;;4.80;99.90;;;;;;5060417;28;20029;-66
2021/01/17 00:15:16;;;;;;;67.00;40.08;;;4.90;99.90;;;;;;5057822;28;20106;-65
2021/01/17 00:17:43;;;;;;;60.15;38.45;;;4.80;99.90;;;;;;5056056;28;20029;-65
2021/01/17 00:20:13;;;;;;;58.67;35.92;;;4.90;99.90;;;;;;5058304;28;20127;-66
2021/01/17 00:22:39;;;;;;;54.80;29.73;;;4.90;99.90;;;;;;5055547;28;20484;-65
2021/01/17 00:25:06;;;;;;;38.42;26.13;;;4.90;99.90;;;;;;5059086;28;20025;-66
2021/01/17 00:27:32;;;;;;;39.80;23.55;;;4.90;99.90;;;;;;5054583;28;20436;-66
2021/01/17 00:29:58;;;;;;;35.25;21.23;;;5.00;99.90;;;;;;5059952;28;20087;-66
2021/01/17 00:32:23;;;;;;;34.05;20.08;;;5.00;99.90;;;;;;5054017;28;20060;-66
2021/01/17 00:34:49;;;;;;;31.00;20.20;;;4.90;99.90;;;;;;5060145;28;20119;-66
2021/01/17 00:37:16;;;;;;;29.25;20.20;;;4.90;99.90;;;;;;5053750;28;20029;-65
2021/01/17 00:39:42;;;;;;;32.83;20.33;;;5.00;99.90;;;;;;5060457;28;20096;-66
2021/01/17 00:42:12;;;;;;;34.90;20.75;;;5.20;99.90;;;;;;5053637;28;20112;-66
2021/01/17 00:44:38;;;;;;;30.35;20.23;;;5.20;99.90;;;;;;5060076;28;20032;-66
2021/01/17 00:47:04;;;;;;;32.40;19.20;;;5.10;99.90;;;;;;5053634;28;20036;-66
2021/01/17 00:49:31;;;;;;;27.05;18.17;;;5.10;99.90;;;;;;5059989;28;20021;-65
2021/01/17 00:51:56;;;;;;;30.48;18.98;;;5.00;99.90;;;;;;5053499;28;20040;-66
2021/01/17 00:54:22;;;;;;;29.83;17.48;;;5.10;99.90;;;;;;5060180;28;20051;-66
2021/01/17 00:56:48;;;;;;;24.55;15.77;;;5.20;99.90;;;;;;5052294;28;20025;-66
2021/01/17 00:59:14;;;;;;;28.38;16.27;;;5.40;99.90;;;;;;5061124;28;20489;-66
2021/01/17 01:01:44;;;;;;;24.55;15.60;;;5.40;99.90;;;;;;5074970;28;20066;-66
2021/01/17 01:04:12;;;;;;;25.55;16.17;;;5.40;99.90;;;;;;5060245;28;20077;-66
2021/01/17 01:06:38;;;;;;;32.90;19.02;;;5.40;99.90;;;;;;5069478;28;20048;-66
2021/01/17 01:09:13;;;;;;;37.13;21.77;;;5.40;99.90;;;;;;5061868;28;20527;-65
2021/01/17 01:11:39;;;;;;;64.13;31.55;;;5.40;99.90;;;;;;5051114;28;20045;-66
2021/01/17 01:14:05;;;;;;;87.35;44.75;;;5.20;99.90;;;;;;5061752;28;20029;-66
2021/01/17 01:16:31;;;;;;;93.38;45.30;;;5.30;99.90;;;;;;5050753;28;20025;-66
2021/01/17 01:18:58;;;;;;;80.78;39.55;;;5.40;99.90;;;;;;5061566;28;20041;-66
2021/01/17 01:21:34;;;;;;;31.40;17.00;;;5.30;99.90;;;;;;5050711;28;20032;-65
2021/01/17 01:24:00;;;;;;;;;;;5.40;99.90;;;;;;5061952;28;20032;-66
2021/01/17 01:26:26;;;;;;;17.00;9.93;;;5.40;99.90;;;;;;5050743;28;19904;-65
2021/01/17 01:28:55;;;;;;;13.82;7.45;;;5.50;99.90;;;;;;5058752;28;20271;-66
2021/01/17 01:31:25;;;;;;;13.38;6.30;;;5.70;99.90;;;;;;5070485;28;20046;-66
2021/01/17 01:33:52;;;;;;;14.57;4.60;;;6.00;99.90;;;;;;5061413;28;20524;-66
2021/01/17 01:36:22;;;;;;;12.82;4.70;;;6.10;99.90;;;;;;5050588;28;20070;-66
2021/01/17 01:38:49;;;;;;;12.63;5.15;;;6.30;99.90;;;;;;5061603;28;20035;-66
2021/01/17 01:41:16;;;;;;;8.27;4.35;;;6.20;99.90;;;;;;5050663;28;20028;-66
2021/01/17 01:43:42;;;;;;;10.13;4.32;;;6.30;99.90;;;;;;5061439;28;20514;-66
2021/01/17 01:46:21;;;;;;;7.90;3.90;;;6.40;99.90;;;;;;5050278;28;20032;-66
2021/01/17 01:48:47;;;;;;;12.07;3.97;;;6.40;99.90;;;;;;5061270;28;20036;-66
2021/01/17 01:51:15;;;;;;;9.73;4.10;;;6.60;99.90;;;;;;5050138;28;20033;-65
2021/01/17 01:53:41;;;;;;;8.18;3.95;;;6.70;99.90;;;;;;5060796;28;20070;-66
2021/01/17 01:56:08;;;;;;;8.05;3.60;;;6.70;99.90;;;;;;5050281;28;20485;-66
2021/01/17 01:58:36;;;;;;;8.02;3.75;;;6.80;99.90;;;;;;5061260;28;20078;-66
2021/01/17 02:01:06;;;;;;;7.32;3.30;;;6.80;99.90;;;;;;5050106;28;20021;-66
2021/01/17 02:03:32;;;;;;;7.82;3.53;;;7.10;99.90;;;;;;5061017;28;20085;-66
2021/01/17 02:05:57;;;;;;;5.45;3.55;;;7.00;99.90;;;;;;5050351;28;20025;-65
2021/01/17 02:08:44;;;;;;;10.20;3.20;;;6.90;99.90;;;;;;5059704;28;20034;-66
2021/01/17 02:11:46;;;;;;;8.07;2.60;;;6.90;99.90;;;;;;5050021;28;20424;-66
2021/01/17 02:14:11;;;;;;;5.57;3.00;;;7.20;99.90;;;;;;5059415;28;20032;-66
2021/01/17 02:16:40;;;;;;;5.13;2.70;;;7.30;99.90;;;;;;5068821;28;20031;-66
2021/01/17 02:19:08;;;;;;;6.65;3.10;;;7.30;99.90;;;;;;5060685;28;20037;-66
2021/01/17 02:21:38;;;;;;;6.80;2.63;;;7.10;99.90;;;;;;5049874;28;20029;-66
2021/01/17 02:24:11;;;;;;;6.13;2.97;;;7.20;99.90;;;;;;5060974;28;20028;-66
2021/01/17 02:26:39;;;;;;;6.00;2.35;;;7.30;99.90;;;;;;5050245;28;20532;-66
2021/01/17 02:29:10;;;;;;;8.48;3.20;;;7.30;99.90;;;;;;5060912;28;20075;-66
2021/01/17 02:31:39;;;;;;;5.05;2.63;;;7.30;99.90;;;;;;5050136;28;20128;-66
2021/01/17 02:34:06;;;;;;;6.40;2.60;;;7.40;99.90;;;;;;5058253;28;20024;-66
2021/01/17 02:36:35;;;;;;;5.97;3.03;;;7.40;99.90;;;;;;5069009;28;20121;-67
2021/01/17 02:39:10;;;;;;;6.90;2.70;;;7.40;99.90;;;;;;5060572;28;20053;-65
2021/01/17 02:41:44;;;;;;;9.02;2.80;;;7.50;99.90;;;;;;5050215;28;20032;-67
2021/01/17 02:44:10;;;;;;;3.45;2.25;;;7.40;99.90;;;;;;5058836;28;20013;-67
2021/01/17 02:46:35;;;;;;;5.22;2.55;;;7.40;99.90;;;;;;5068706;28;20039;-67
2021/01/17 02:49:01;;;;;;;4.32;2.10;;;7.40;99.90;;;;;;5060411;28;20489;-67
2021/01/17 02:51:27;;;;;;;5.45;2.25;;;7.40;99.90;;;;;;5049607;28;20097;-67
2021/01/17 02:54:25;;;;;;;2.85;2.10;;;7.50;99.90;;;;;;5060946;28;20040;-67
2021/01/17 02:57:10;;;;;;;4.90;2.47;;;7.80;99.90;;;;;;5050912;28;20076;-67
2021/01/17 03:00:05;;;;;;;4.72;2.15;;;7.70;99.90;;;;;;5058441;28;20036;-67
2021/01/17 03:02:47;;;;;;;6.95;2.28;;;7.70;99.90;;;;;;5050183;28;20033;-65
2021/01/17 03:05:17;;;;;;;5.03;2.30;;;7.60;99.90;;;;;;5065283;28;20051;-65
2021/01/17 03:07:48;;;;;;;5.38;2.10;;;7.80;99.90;;;;;;5066776;28;20511;-65
2021/01/17 03:10:14;;;;;;;6.03;2.10;;;7.90;99.90;;;;;;5059762;28;20017;-67
2021/01/17 03:12:40;;;;;;;4.97;1.98;;;7.90;99.90;;;;;;5056716;28;20032;-66
2021/01/17 03:15:07;;;;;;;5.88;2.00;;;7.90;99.90;;;;;;5060797;28;20013;-66
2021/01/17 03:17:33;;;;;;;4.38;1.67;;;7.90;99.90;;;;;;5055470;28;20029;-67
2021/01/17 03:19:59;;;;;;;3.53;1.67;;;8.00;99.90;;;;;;5061347;28;20045;-67
2021/01/17 03:22:25;;;;;;;6.70;1.90;;;8.00;99.90;;;;;;5055514;28;20029;-67
2021/01/17 03:24:50;;;;;;;4.13;1.70;;;8.20;99.90;;;;;;5061946;28;20381;-67
2021/01/17 03:27:16;;;;;;;2.95;1.50;;;8.30;99.90;;;;;;5055236;28;20043;-67
2021/01/17 03:29:42;;;;;;;6.97;1.90;;;8.20;99.90;;;;;;5061688;28;20021;-66
2021/01/17 03:32:07;;;;;;;3.63;1.67;;;8.20;99.90;;;;;;5055198;28;20446;-66
2021/01/17 03:34:33;;;;;;;3.03;1.75;;;8.30;99.90;;;;;;5061337;28;20035;-67
2021/01/17 03:37:00;;;;;;;2.88;1.30;;;8.20;99.90;;;;;;5054951;28;20075;-66
2021/01/17 03:39:26;;;;;;;6.43;1.70;;;8.40;99.90;;;;;;5061631;28;20036;-66
2021/01/17 03:41:51;;;;;;;2.67;1.90;;;8.30;99.90;;;;;;5053881;28;20025;-67
2021/01/17 03:44:17;;;;;;;5.97;1.17;;;8.50;99.90;;;;;;5062175;28;20056;-66
2021/01/17 03:46:43;;;;;;;3.95;1.50;;;8.50;99.90;;;;;;5052750;28;20100;-67
2021/01/17 03:49:08;;;;;;;6.65;1.67;;;8.50;99.90;;;;;;5063382;28;20025;-67
2021/01/17 03:51:34;;;;;;;2.67;1.30;;;8.30;99.90;;;;;;5052215;28;20044;-67
2021/01/17 03:54:00;;;;;;;2.90;1.50;;;8.40;99.90;;;;;;5063515;28;20428;-67
2021/01/17 03:56:26;;;;;;;2.20;1.30;;;8.40;99.90;;;;;;5052541;28;20489;-67
2021/01/17 03:58:52;;;;;;;3.95;1.20;;;8.40;99.90;;;;;;5063516;28;20021;-67
2021/01/17 04:01:17;;;;;;;2.22;1.30;;;8.30;99.90;;;;;;5052314;28;20070;-67
2021/01/17 04:03:43;;;;;;;1.88;1.13;;;8.30;99.90;;;;;;5063040;28;20082;-67
2021/01/17 04:06:09;;;;;;;5.22;1.27;;;8.50;99.90;;;;;;5052183;28;20025;-67
2021/01/17 04:08:34;;;;;;;6.25;2.20;;;8.50;99.90;;;;;;5062953;28;20377;-67
2021/01/17 04:11:00;;;;;;;3.38;1.40;;;8.60;99.90;;;;;;5052503;28;20033;-67
2021/01/17 04:13:26;;;;;;;1.63;1.40;;;8.30;99.90;;;;;;5054536;28;20032;-67
2021/01/17 04:15:52;;;;;;;4.43;2.05;;;8.50;99.90;;;;;;5058572;28;20059;-67
2021/01/17 04:18:17;;;;;;;4.18;1.48;;;8.40;99.90;;;;;;5061334;28;20508;-67
2021/01/17 04:20:43;;;;;;;2.40;1.13;;;8.60;99.90;;;;;;5058888;28;20056;-66
2021/01/17 04:23:09;;;;;;;3.03;1.50;;;8.60;99.90;;;;;;5058727;28;20036;-67
2021/01/17 04:25:35;;;;;;;2.22;1.70;;;8.60;99.90;;;;;;5060724;28;20430;-67
2021/01/17 04:28:01;;;;;;;3.00;1.55;;;8.70;99.90;;;;;;5063999;28;20039;-67
2021/01/17 04:30:34;;;;;;;4.35;1.70;;;8.60;99.90;;;;;;5057081;28;20053;-67
2021/01/17 04:33:00;;;;;;;2.55;1.80;;;8.60;99.90;;;;;;5061391;28;20048;-67
2021/01/17 04:35:25;;;;;;;3.30;2.03;;;8.50;99.90;;;;;;5054819;28;20114;-67
2021/01/17 04:37:55;;;;;;;3.45;1.50;;;8.50;99.90;;;;;;5062569;28;20040;-67
2021/01/17 04:40:22;;;;;;;3.10;1.60;;;8.70;99.90;;;;;;5052726;28;20029;-67
2021/01/17 04:42:49;;;;;;;2.40;1.75;;;8.70;99.90;;;;;;5063000;28;20036;-67
2021/01/17 04:45:17;;;;;;;3.95;1.70;;;8.80;99.90;;;;;;5051503;28;20096;-66
2021/01/17 04:47:45;;;;;;;4.13;1.70;;;8.80;99.90;;;;;;5056934;28;20116;-67
2021/01/17 04:50:12;;;;;;;2.95;1.27;;;8.60;99.90;;;;;;5060754;28;20442;-66
2021/01/17 04:53:03;;;;;;;1.92;1.23;;;8.70;99.90;;;;;;5066878;28;20046;-67
2021/01/17 04:55:29;;;;;;;3.20;1.20;;;8.70;99.90;;;;;;5048616;28;20412;-66
2021/01/17 04:58:09;;;;;;;2.03;1.63;;;8.80;99.90;;;;;;5055540;28;20119;-66
2021/01/17 05:00:44;;;;;;;2.03;1.15;;;8.80;99.90;;;;;;5054345;28;20473;-66
2021/01/17 05:03:23;;;;;;;3.67;1.75;;;8.90;99.90;;;;;;5062775;28;20024;-67
2021/01/17 05:05:54;;;;;;;2.20;1.40;;;8.90;99.90;;;;;;5059782;28;20016;-66
2021/01/17 05:08:26;;;;;;;2.60;1.15;;;9.00;99.90;;;;;;5064240;28;20021;-67
2021/01/17 05:11:29;;;;;;;2.80;1.42;;;9.00;99.90;;;;;;5060987;28;20071;-67
2021/01/17 05:14:12;;;;;;;2.05;1.10;;;9.00;99.90;;;;;;5061001;28;20028;-66
2021/01/17 05:16:45;;;;;;;1.67;1.13;;;8.90;99.90;;;;;;5063841;28;20012;-66
2021/01/17 05:19:16;;;;;;;1.27;1.02;;;9.00;99.90;;;;;;5055858;28;20386;-66
2021/01/17 05:22:03;;;;;;;3.40;1.00;;;9.00;99.90;;;;;;5049457;28;20044;-67
2021/01/17 05:24:31;;;;;;;2.55;1.35;;;9.00;99.90;;;;;;5049872;28;20020;-68
2021/01/17 05:27:01;;;;;;;3.20;1.13;;;9.00;99.90;;;;;;5049679;28;20029;-67
2021/01/17 05:29:29;;;;;;;1.70;1.10;;;9.00;99.90;;;;;;5048481;28;20024;-66
2021/01/17 05:32:02;;;;;;;3.63;1.13;;;8.90;99.90;;;;;;5049965;28;20544;-67
2021/01/17 05:34:29;;;;;;;1.55;1.27;;;9.10;99.90;;;;;;5049371;28;20029;-66
2021/01/17 05:37:07;;;;;;;1.40;1.10;;;9.10;99.90;;;;;;5052496;28;20484;-66
2021/01/17 05:39:53;;;;;;;2.55;1.00;;;9.10;99.90;;;;;;5053433;28;20637;-66
2021/01/17 05:42:23;;;;;;;3.90;1.60;;;9.20;99.90;;;;;;5048058;28;20078;-66
2021/01/17 05:44:49;;;;;;;1.42;1.27;;;9.10;99.90;;;;;;5057990;28;20056;-67
2021/01/17 05:47:21;;;;;;;1.38;1.00;;;9.10;99.90;;;;;;5053948;28;20508;-66
2021/01/17 05:49:48;;;;;;;1.83;1.02;;;9.10;99.90;;;;;;5059346;28;20032;-66
2021/01/17 05:52:15;;;;;;;1.98;1.08;;;9.10;99.90;;;;;;5066689;28;20043;-66
2021/01/17 05:54:43;;;;;;;3.95;1.35;;;9.00;99.90;;;;;;5054561;28;20079;-67
2021/01/17 05:57:17;;;;;;;2.83;1.40;;;9.00;99.90;;;;;;5066460;28;20044;-66
2021/01/17 05:59:43;;;;;;;3.08;1.23;;;8.90;99.90;;;;;;5058866;28;20055;-66
2021/01/17 06:02:13;;;;;;;1.45;1.30;;;8.90;99.90;;;;;;5064183;28;20213;-67
2021/01/17 06:04:41;;;;;;;2.75;1.23;;;9.00;99.90;;;;;;5055246;28;20013;-66
2021/01/17 06:07:09;;;;;;;1.85;1.20;;;8.90;99.90;;;;;;5061198;28;20025;-66
2021/01/17 06:09:37;;;;;;;3.28;1.30;;;8.90;99.90;;;;;;5055181;28;20028;-66
2021/01/17 06:12:02;;;;;;;2.35;1.23;;;9.00;99.90;;;;;;5060859;28;20416;-66
2021/01/17 06:14:28;;;;;;;5.63;1.00;;;9.00;99.90;;;;;;5049565;28;20013;-66
2021/01/17 06:17:02;;;;;;;1.48;1.30;;;9.10;99.90;;;;;;5065170;28;20460;-66
2021/01/17 06:19:36;;;;;;;1.88;1.35;;;9.00;99.90;;;;;;5058308;28;20485;-66
2021/01/17 06:22:07;;;;;;;5.45;1.92;;;9.20;99.90;;;;;;5066082;28;20057;-67
2021/01/17 06:24:40;;;;;;;2.05;1.30;;;9.10;99.90;;;;;;5058473;28;20025;-66
2021/01/17 06:27:07;;;;;;;2.15;1.40;;;9.10;99.90;;;;;;5049994;28;20021;-66
2021/01/17 06:29:35;;;;;;;2.08;1.20;;;9.00;99.90;;;;;;5056114;28;20025;-67
2021/01/17 06:32:14;;;;;;;2.38;1.30;;;8.90;99.90;;;;;;5056007;28;20033;-67
2021/01/17 06:34:54;;;;;;;1.90;1.45;;;9.00;99.90;;;;;;5059839;28;20473;-67
2021/01/17 06:37:22;;;;;;;3.03;1.05;;;9.00;99.90;;;;;;5063310;28;20037;-66
2021/01/17 06:39:52;;;;;;;3.08;1.58;;;9.00;99.90;;;;;;5055533;28;20424;-67
2021/01/17 06:42:19;;;;;;;1.50;1.15;;;8.90;99.90;;;;;;5065045;28;20025;-66
2021/01/17 06:44:45;;;;;;;3.65;1.95;;;8.90;99.90;;;;;;5060558;28;20046;-66
2021/01/17 06:47:22;;;;;;;2.50;2.30;;;8.90;99.90;;;;;;5058463;28;20017;-66
2021/01/17 06:49:49;;;;;;;2.58;1.90;;;8.70;99.90;;;;;;5052907;28;20082;-66
2021/01/17 06:52:16;;;;;;;3.75;2.22;;;8.80;99.90;;;;;;5057656;28;20049;-66
2021/01/17 06:54:49;;;;;;;2.38;1.80;;;8.90;99.90;;;;;;5052236;28;20025;-66
2021/01/17 06:57:15;;;;;;;2.78;2.58;;;8.80;99.90;;;;;;5053288;28;20033;-64
2021/01/17 06:59:46;;;;;;;3.95;2.67;;;8.80;99.90;;;;;;5052547;28;20028;-66
2021/01/17 07:02:15;;;;;;;4.25;2.20;;;8.70;99.90;;;;;;5052938;28;20029;-66
2021/01/17 07:04:55;;;;;;;2.67;2.47;;;8.60;99.90;;;;;;5053394;28;20036;-67
2021/01/17 07:07:50;;;;;;;2.67;2.47;;;8.70;99.90;;;;;;5055516;28;20078;-67
2021/01/17 07:10:21;;;;;;;2.25;1.63;;;8.60;99.90;;;;;;5060281;28;20020;-67
2021/01/17 07:13:02;;;;;;;3.40;2.03;;;8.70;99.90;;;;;;5066734;28;20481;-68
2021/01/17 07:15:31;;;;;;;6.03;1.48;;;8.60;99.90;;;;;;5066304;28;20096;-67
2021/01/17 07:18:04;;;;;;;1.77;1.48;;;8.60;99.90;;;;;;5066482;28;20043;-66
2021/01/17 07:20:32;;;;;;;2.28;1.70;;;8.60;99.90;;;;;;5066755;28;20049;-67
2021/01/17 07:22:59;;;;;;;2.33;1.88;;;8.70;99.90;;;;;;5064558;28;20663;-67
2021/01/17 07:25:29;;;;;;;1.77;1.30;;;8.50;99.90;;;;;;5062375;28;20099;-67
2021/01/17 07:28:03;;;;;;;3.05;1.52;;;8.50;99.90;;;;;;5064559;28;20566;-66
2021/01/17 07:30:46;;;;;;;2.13;1.45;;;8.50;99.90;;;;;;5061174;28;20056;-67
2021/01/17 07:33:16;;;;;;;2.25;1.40;;;8.60;99.90;;;;;;5064471;28;20029;-66
2021/01/17 07:35:47;;;;;;;1.48;1.23;;;8.50;99.90;;;;;;5054958;28;20025;-67
2021/01/17 07:38:21;;;;;;;2.83;1.48;;;8.60;99.90;;;;;;5063356;28;20439;-66
2021/01/17 07:40:54;;;;;;;2.72;1.40;;;8.60;99.90;;;;;;5061246;28;20500;-65
2021/01/17 07:43:30;;;;;;;1.55;1.40;;;8.70;99.90;;;;;;5064407;28;20033;-65
2021/01/17 07:45:58;;;;;;;1.80;1.50;;;8.80;99.90;;;;;;5053388;28;20056;-66
2021/01/17 07:48:24;;;;;;;2.28;1.40;;;8.80;99.90;;;;;;5059026;28;20512;-65
2021/01/17 07:50:55;;;;;;;2.45;1.65;;;8.80;99.90;;;;;;5060115;28;20033;-65
2021/01/17 07:53:36;;;;;;;1.85;1.50;;;8.60;99.90;;;;;;5059118;28;20021;-66
2021/01/17 07:56:12;;;;;;;1.38;1.27;;;8.60;99.90;;;;;;5051636;28;20546;-66
2021/01/17 07:58:52;;;;;;;2.45;1.33;;;8.70;99.90;;;;;;5050053;28;20543;-66
2021/01/17 08:01:34;;;;;;;1.15;1.00;;;8.60;99.90;;;;;;5050842;28;20106;-66
2021/01/17 08:04:03;;;;;;;1.85;1.10;;;8.80;99.90;;;;;;5051479;28;20151;-66
2021/01/17 08:06:34;;;;;;;2.47;1.60;;;8.70;99.90;;;;;;5050432;28;20140;-65
2021/01/17 08:09:14;;;;;;;4.20;1.40;;;8.70;99.90;;;;;;5051045;28;20028;-66
2021/01/17 08:11:41;;;;;;;1.92;1.58;;;8.80;99.90;;;;;;5050275;28;20033;-66
2021/01/17 08:14:40;;;;;;;4.07;2.17;;;8.80;99.90;;;;;;5050076;28;20032;-66
2021/01/17 08:17:19;;;;;;;1.88;1.38;;;8.70;99.90;;;;;;5051734;28;20025;-66
2021/01/17 08:19:53;;;;;;;2.00;1.23;;;8.80;99.90;;;;;;5049613;28;20495;-65
2021/01/17 08:22:19;;;;;;;3.60;1.20;;;8.90;99.90;;;;;;5050484;28;20036;-66
2021/01/17 08:24:52;;;;;;;3.38;1.60;;;8.90;99.90;;;;;;5050387;28;20033;-66
2021/01/17 08:27:30;;;;;;;2.20;1.63;;;8.80;99.90;;;;;;5048865;28;20028;-66
2021/01/17 08:32:45;;;;;;;3.30;1.85;;;8.90;99.90;;;;;;5064624;28;20508;-66
2021/01/17 08:37:49;;;;;;;3.95;2.13;;;8.90;99.90;;;;;;5064586;28;20544;-67
2021/01/17 08:40:17;;;;;;;4.53;2.88;;;8.90;99.90;;;;;;5058520;28;20025;-66
2021/01/17 08:42:50;;;;;;;5.03;3.47;;;8.90;99.90;;;;;;5052926;28;20029;-66
2021/01/17 08:45:22;;;;;;;8.43;2.97;;;9.00;99.90;;;;;;5057681;28;20401;-67
2021/01/17 08:47:52;;;;;;;4.95;3.03;;;8.90;99.90;;;;;;5063326;28;20033;-67
2021/01/17 08:50:37;;;;;;;3.20;2.63;;;9.00;99.90;;;;;;5052176;28;20040;-66
2021/01/17 08:53:08;;;;;;;4.13;3.20;;;9.10;99.90;;;;;;5051353;28;20040;-66
2021/01/17 08:55:38;;;;;;;3.22;2.78;;;9.00;99.90;;;;;;5050515;28;20055;-67
2021/01/17 08:58:04;;;;;;;2.60;2.40;;;9.10;99.90;;;;;;5054684;28;20044;-67
2021/01/17 09:00:53;;;;;;;2.72;1.90;;;9.10;99.90;;;;;;5055921;28;20032;-67
2021/01/17 09:03:29;;;;;;;3.50;1.60;;;9.20;99.90;;;;;;5042654;28;20456;-66
2021/01/17 09:05:58;;;;;;;2.58;1.83;;;9.30;99.90;;;;;;5059882;28;20024;-67
2021/01/17 09:08:24;;;;;;;2.78;1.52;;;9.20;99.90;;;;;;5055518;28;20497;-67
2021/01/17 09:10:50;;;;;;;2.40;1.80;;;9.30;99.90;;;;;;5052211;28;20036;-67
2021/01/17 09:13:18;;;;;;;2.60;2.38;;;9.20;99.90;;;;;;5063340;28;20040;-66
2021/01/17 09:16:07;;;;;;;3.13;2.58;;;9.20;99.90;;;;;;5056968;28;20024;-66
2021/01/17 09:18:39;;;;;;;2.70;2.05;;;9.10;99.90;;;;;;5049684;28;20048;-67
2021/01/17 09:21:06;;;;;;;2.20;2.00;;;9.10;99.90;;;;;;5050386;28;20025;-66
2021/01/17 09:23:37;;;;;;;3.22;1.55;;;9.20;99.90;;;;;;5051768;28;20178;-66
2021/01/17 09:26:04;;;;;;;2.10;1.58;;;9.40;99.90;;;;;;5060806;28;20043;-66
2021/01/17 09:28:30;;;;;;;3.10;1.80;;;9.40;99.90;;;;;;5051541;28;20548;-66
2021/01/17 09:30:58;;;;;;;5.03;2.20;;;9.40;99.90;;;;;;5052370;28;20086;-66
2021/01/17 09:33:25;;;;;;;5.15;1.98;;;9.50;99.90;;;;;;5055354;28;20028;-66
2021/01/17 09:35:51;;;;;;;2.28;1.67;;;9.30;99.90;;;;;;5057353;28;20361;-66
2021/01/17 09:38:18;;;;;;;2.70;1.77;;;9.40;99.90;;;;;;5055289;28;20021;-66
2021/01/17 09:40:56;;;;;;;3.75;1.77;;;9.50;99.90;;;;;;5062977;28;20019;-67
2021/01/17 09:43:22;;;;;;;4.95;2.28;;;9.30;99.90;;;;;;5050263;28;20033;-66
2021/01/17 09:45:51;;;;;;;3.45;2.20;;;9.40;99.90;;;;;;5049324;28;20102;-66
2021/01/17 09:48:21;;;;;;;2.15;1.73;;;9.40;99.90;;;;;;5051289;28;20067;-66
2021/01/17 09:50:49;;;;;;;4.00;2.00;;;9.50;99.90;;;;;;5052250;28;20061;-66
2021/01/17 09:53:15;;;;;;;4.72;2.45;;;9.60;99.90;;;;;;5052067;28;20535;-66
2021/01/17 09:55:42;;;;;;;5.13;3.55;;;9.40;99.90;;;;;;5049638;28;20108;-66
2021/01/17 09:58:12;;;;;;;4.30;3.08;;;9.70;99.90;;;;;;5051779;28;20021;-66
2021/01/17 10:00:40;;;;;;;7.45;2.70;;;9.50;99.90;;;;;;5050459;28;20027;-66
2021/01/17 10:03:13;;;;;;;6.32;2.63;;;9.60;99.90;;;;;;5055457;28;20068;-66
2021/01/17 10:05:41;;;;;;;4.13;2.58;;;9.60;99.90;;;;;;5060543;28;20017;-66
2021/01/17 10:08:07;;;;;;;3.28;2.55;;;9.60;99.90;;;;;;5060692;28;20044;-66
2021/01/17 10:10:41;;;;;;;3.17;2.60;;;9.80;99.90;;;;;;5054305;28;20116;-67
2021/01/17 10:13:07;;;;;;;3.65;2.50;;;9.80;99.90;;;;;;5059096;28;20587;-66
2021/01/17 10:15:34;;;;;;;2.60;2.40;;;9.90;99.90;;;;;;5060932;28;20396;-66
2021/01/17 10:18:00;;;;;;;3.22;2.28;;;10.00;99.90;;;;;;5061781;28;20107;-66
2021/01/17 10:20:33;;;;;;;3.33;2.75;;;9.90;99.90;;;;;;5055100;28;20106;-60
2021/01/17 10:23:01;;;;;;;2.30;2.10;;;9.90;99.90;;;;;;5063068;28;20100;-59
2021/01/17 10:25:27;;;;;;;4.35;2.33;;;9.80;99.90;;;;;;5060827;28;20444;-59
2021/01/17 10:28:01;;;;;;;6.20;3.10;;;9.70;99.90;;;;;;5062716;28;20052;-60
2021/01/17 10:30:28;;;;;;;5.43;3.08;;;9.60;99.90;;;;;;5058544;28;20115;-59
2021/01/17 10:33:17;;;;;;;3.28;2.40;;;9.80;99.90;;;;;;5051480;28;20040;-60
2021/01/17 10:35:45;;;;;;;4.97;2.60;;;9.60;99.90;;;;;;5044355;28;20033;-60
2021/01/17 10:38:12;;;;;;;3.92;2.60;;;9.70;99.90;;;;;;5054398;28;20064;-60
2021/01/17 10:40:38;;;;;;;4.78;2.53;;;9.70;99.90;;;;;;5059134;28;20130;-60
2021/01/17 10:43:22;;;;;;;2.85;2.55;;;9.60;99.90;;;;;;5058893;28;20025;-59
2021/01/17 10:46:11;;;;;;;3.83;2.65;;;9.50;99.90;;;;;;5066220;28;20048;-62
2021/01/17 10:49:00;;;;;;;4.25;2.80;;;9.60;99.90;;;;;;5059457;28;20025;-60
2021/01/17 10:51:34;;;;;;;3.47;2.42;;;9.50;99.90;;;;;;5042902;28;20656;-60
2021/01/17 10:54:04;;;;;;;3.00;2.80;;;9.50;99.90;;;;;;5055043;28;20055;-60
2021/01/17 10:56:32;;;;;;;2.42;2.22;;;9.60;99.90;;;;;;5069494;28;20033;-60
2021/01/17 10:58:58;;;;;;;3.53;2.58;;;9.60;99.90;;;;;;5054563;28;20100;-60
2021/01/17 11:01:31;;;;;;;2.15;2.05;;;9.70;99.90;;;;;;5068443;28;20086;-59
2021/01/17 11:03:59;;;;;;;2.10;1.90;;;9.70;99.90;;;;;;5053818;28;20396;-60
2021/01/17 11:06:28;;;;;;;2.45;2.03;;;9.70;99.90;;;;;;5067652;28;20016;-60
2021/01/17 11:08:54;;;;;;;1.73;1.30;;;9.80;99.90;;;;;;5053160;28;20032;-60
2021/01/17 11:11:22;;;;;;;1.60;1.50;;;9.80;99.90;;;;;;5053130;28;20033;-59
2021/01/17 11:14:02;;;;;;;1.05;1.05;;;9.70;99.90;;;;;;5058871;28;20021;-60
2021/01/17 11:16:40;;;;;;;1.77;1.67;;;9.80;99.90;;;;;;5061188;28;20021;-60
2021/01/17 11:19:11;;;;;;;1.65;1.50;;;9.90;99.90;;;;;;5049798;28;20064;-60
2021/01/17 11:21:38;;;;;;;1.20;1.10;;;9.80;99.90;;;;;;5053780;28;20029;-61
2021/01/17 11:24:05;;;;;;;0.80;0.80;;;9.90;99.90;;;;;;5057816;28;20029;-60
2021/01/17 11:26:32;;;;;;;1.75;1.65;;;9.90;99.90;;;;;;5062283;28;20025;-65
2021/01/17 11:28:59;;;;;;;1.30;1.20;;;9.80;99.90;;;;;;5060180;28;20529;-68
2021/01/17 11:31:26;;;;;;;1.40;1.30;;;9.70;99.90;;;;;;5055274;28;20124;-60
2021/01/17 11:33:52;;;;;;;1.70;0.95;;;9.60;99.90;;;;;;5058159;28;20112;-60
2021/01/17 11:36:19;;;;;;;1.25;0.52;;;9.40;99.90;;;;;;5054846;28;20082;-61
2021/01/17 11:38:47;;;;;;;0.60;0.60;;;9.60;99.90;;;;;;5061637;28;20037;-61
2021/01/17 11:41:14;;;;;;;0.80;0.70;;;9.40;99.90;;;;;;5067586;28;20404;-64
2021/01/17 11:43:40;;;;;;;0.60;0.60;;;9.40;99.90;;;;;;5065878;28;20020;-68
2021/01/17 11:46:07;;;;;;;0.70;0.50;;;9.40;99.90;;;;;;5062444;28;20021;-61
2021/01/17 11:48:33;;;;;;;0.20;0.20;;;9.30;99.90;;;;;;5056334;28;20052;-60
2021/01/17 11:50:59;;;;;;;0.43;0.28;;;9.10;99.90;;;;;;5052279;28;20013;-61
2021/01/17 11:53:29;;;;;;;0.95;0.40;;;9.00;99.90;;;;;;5063274;28;20103;-61
2021/01/17 11:55:55;;;;;;;1.45;0.70;;;9.10;99.90;;;;;;5063972;28;20681;-65
2021/01/17 11:58:21;;;;;;;1.75;0.52;;;8.90;99.90;;;;;;5064138;28;20081;-61
2021/01/17 12:00:51;;;;;;;3.38;0.70;;;8.80;99.90;;;;;;5063824;28;20073;-61
2021/01/17 12:03:32;;;;;;;1.67;0.73;;;8.80;99.90;;;;;;5061738;28;20099;-61
2021/01/17 12:06:00;;;;;;;2.92;1.10;;;8.90;99.90;;;;;;5051840;28;20024;-61
2021/01/17 12:08:46;;;;;;;0.80;0.60;;;9.10;99.90;;;;;;5059395;28;20148;-61
2021/01/17 12:11:11;;;;;;;4.03;1.08;;;9.10;99.90;;;;;;5065638;28;20115;-68
2021/01/17 12:13:37;;;;;;;1.67;1.00;;;9.20;99.90;;;;;;5065353;28;20100;-61
2021/01/17 12:16:06;;;;;;;1.95;1.15;;;9.30;99.90;;;;;;5064555;28;20021;-61
2021/01/17 12:18:36;;;;;;;1.00;0.80;;;9.30;99.90;;;;;;5062684;28;20029;-61
2021/01/17 12:21:01;;;;;;;1.05;0.95;;;9.30;99.90;;;;;;5063340;28;20491;-61
2021/01/17 12:23:27;;;;;;;3.13;1.08;;;9.10;99.90;;;;;;5065113;28;20027;-61
2021/01/17 12:25:53;;;;;;;1.17;0.60;;;9.00;99.90;;;;;;5062498;28;20029;-61
2021/01/17 12:28:18;;;;;;;3.83;0.90;;;8.90;99.90;;;;;;5065015;28;20427;-65
2021/01/17 12:30:44;;;;;;;2.20;1.00;;;9.20;99.90;;;;;;5062608;28;20032;-60
2021/01/17 12:33:09;;;;;;;1.80;0.82;;;9.00;99.90;;;;;;5063349;28;20036;-60
2021/01/17 12:35:35;;;;;;;1.92;1.08;;;8.90;99.90;;;;;;5065038;28;20079;-60
2021/01/17 12:38:01;;;;;;;2.65;1.90;;;8.80;99.90;;;;;;5056884;28;20568;-60
2021/01/17 12:40:26;;;;;;;3.72;2.17;;;8.80;99.90;;;;;;5056733;28;20027;-61
2021/01/17 12:42:52;;;;;;;4.72;1.48;;;8.70;99.90;;;;;;5058710;28;20440;-60
2021/01/17 12:45:17;;;;;;;4.38;1.75;;;8.60;99.90;;;;;;5061829;28;20021;-60
2021/01/17 12:47:43;;;;;;;6.10;1.48;;;8.50;99.90;;;;;;5064429;28;20409;-60
2021/01/17 12:50:09;;;;;;;3.53;1.70;;;8.60;99.90;;;;;;5056646;28;20033;-60
2021/01/17 12:52:35;;;;;;;3.80;1.63;;;8.40;99.90;;;;;;5066867;28;20401;-63
2021/01/17 12:55:00;;;;;;;5.85;1.30;;;8.60;99.90;;;;;;5054776;28;20033;-60
2021/01/17 12:57:29;;;;;;;4.50;1.60;;;8.50;99.90;;;;;;5063637;28;20092;-60
2021/01/17 12:59:55;;;;;;;1.98;1.15;;;8.80;99.90;;;;;;5065998;28;20404;-60
2021/01/17 13:02:20;;;;;;;2.50;1.52;;;8.90;99.90;;;;;;5067223;28;20025;-60
2021/01/17 13:04:46;;;;;;;2.47;1.48;;;9.00;99.90;;;;;;5051528;28;20017;-60
2021/01/17 13:07:12;;;;;;;4.07;1.30;;;9.30;99.90;;;;;;5053047;28;20040;-60
2021/01/17 13:09:37;;;;;;;3.03;1.23;;;9.10;99.90;;;;;;5050853;28;20096;-60
2021/01/17 13:12:04;;;;;;;4.35;1.30;;;9.20;99.90;;;;;;5054951;28;20036;-60
2021/01/17 13:14:30;;;;;;;4.38;1.40;;;9.10;99.90;;;;;;5059029;28;20515;-61